ラパス の空港の天気 - METARとTAF

エル・アルト国際空港 ( SLLP / LPB ) - ボリビア ラパス
飛行場実況気象(Metar)
観測時間01/21 14:00 BOT (01/21 18:00 UTC)
風向・風速東 4m/s
視程10km以上
天気現象
全天の4割程度の雲 雲底高度 520m
少しの雲 雲底高度 610m
全天の8割程度の雲 雲底高度 6100m
気温14℃
湿度55%
気圧1035hPa
METARSLLP 211800Z 10008KT 9999 SCT017 FEW020CB BKN200 14/05 Q1035
過去の天気等 Google飛行場航空写真 Wunderground天気予報

過去48時間のMETAR

飛行場予報(TAF)
発表時間: 1/21 12:00 BOT (1/21 16:00 UTC)
予報対象時間: 21日14時 BOT ~ 22日14時 BOT
風向・風速北東 6m/s
視程8,000m
天気現象周辺でしゅう雨
全天の4割程度の雲 雲底高度 520m
少しの積乱雲 雲底高度 610m
全天の4割程度の雲 雲底高度 2,130m
21日22時 BOT ~ 21日24時 BOT に徐々に
風向・風速東南東 3m/s
22日1時 BOT ~ 22日3時 BOT に 確率 40% で一時的に
視程6,000m
天気現象
22日8時 BOT ~ 22日10時 BOT に徐々に
視程10km以上
天気現象運行に影響にある天気現象が終了
全天の4割程度の雲 雲底高度 460m
TAF COR SLLP 211600Z 2118/2218 05012KT 8000 VCSH SCT017 FEW020CB SCT070 TX14/2120Z TN04/2210Z
BECMG 2202/2204 12005KT 4000E VCFG FEW002 SCT012 FEW017CB SCT070
PROB40 TEMPO 2205/2207 6000 RA
BECMG 2212/2214 9999 NSW SCT015